Česky Dansk Deutsch English Español Suomi Français Magyar Italiano Nederlands norsk Polski Português svenska Türkçe

 

Het Weer

Brive (Frankrijk)

04:00, 15 juni 2010 (GMT)

NWNNE
WE
SWSSE
Home            
Brive Perigueux Aurillac Limoges Bergerac Rodez Agen Cassagnes-Begonhes Montlucon / Gueret Albi Clermont-Ferrand Cognac Toulouse / Blagnac Bordeaux / Merignac Auch Mende / Brenoux Toulouse / Francazal Le Puy Poitiers Vichy Chateauroux Niort Mont-De-Marsan

Om een weerknop op uw website of weblog te plaatsen, copieer onderstaande code en plak die in uw pagina. In het eerste vakje staat HTML-code, in het tweede vakje UBB-code.


Add to Google

Details

Wind speed:1 bf, 1 kn, 0.5 m/s, 1.2 miles/h, 1.9 km/h
Wind direction:Variable
Visibility: 8000 m, 8.0 km, 26247 ft, 5.0 miles
Clouds:Aufgelockert bewölkt at 600 ft, 183 m
Aufgelockert bewölkt at 2000 ft, 610 m
Het Weer:moderate shallow fog
Temperature:12°C, 54°F
Dew-point:11°C, 52°F
Atmospheric pressure:1015 hPa, 761.3 mmHg, 29.97 inHg, 1.002 atm
Relative humidity:93.6 %
METAR:LFBV 150400Z VRB01KT 8000 MIFG SCT006 SCT020 12/11 Q1015

Snelkoppelingen

Actuele weersinformatie van de hele wereld. Voeg locaties toe met het plus (+) symbool. Deze snelkoppelingen kunnen worden toegevoegd aan Google.

Lid van de Technetium groep

website free tracking
StatCounter NetStat W3C Validator

19-08-2022 09:17:26
astro.technetium.be money.technetium.be phote.technetium.be tafeltennistafel.technetium.be www.ligfiets.net